Aérodrome :
LOGIN :

S'inscrire | Disclaimer

   EN    FR    IT 

 










Légende :    VFR   VFR Marginal   IFR   IFR Intensif   IFR Très Intensif
Visi : 
Plafond : 
>= 8 km
>= 3000ft
5 à 8 km
1000 à 3000 ft
1500m à 5 km
500 à 1000 ft
800 à 1500m
200 à 500 ft
< 800m
< 200 ft
Symboles :   Orages  Brouillard  Fortes neiges  Fortes précipitations  Vent > 20 kt
SIGMETs :   Divers  Orages  Givrage  Turbulence  Onde Orograph.  Cendres Volcan.







- Altitude de l'aérodrome : 412 ft
- Code IATA : ORE
- Voir les cartes d'approche


LFOJ - Orleans

DERNIER METAR :
  • 130600Z AUTO 08011KT CAVOK M01/M02 Q1012 TEMPO 4000 BR BKN010

METARs EXPIRÉS :
  • 130530Z AUTO 08010KT 8000 NSC M01/M02 Q1012
  • 130500Z AUTO 09010KT 7000 NSC M01/M02 Q1012
  • 130430Z AUTO 08009KT 6000 SCT009 M01/M02 Q1013
  • 130400Z AUTO 09008KT 7000 BKN007 M01/M02 Q1013
  • 130330Z AUTO 07009KT 7000 FEW007 M01/M02 Q1013

TAF AMD TAF LFOJ
Valide du 13 à 05h jusqu'au 14 à 03h UTC


130530Z 1305/1403 08012KT 8000 NSC
PROB40
TEMPO 1307/1310 4000 BR BKN010
Pas de NOTAMs connus pour ce terrain.



MET'MAP, la Météo Aéronautique d'un coup d'oeil ! - Copyright ORBIFLY Décembre 2007 - Disclaimer

ORBIFLY MET'MAP TEAM :

Programmation & Développement : Alexandra Zaïnal
Conception & Développement : Baudouin d'Aumeries
Co-Programmation & Développement : Marc-Olivier Méhu
Soutien technique & logistique : Manuel Goepfert

Contact : metmap@orbifly.com




SOURCES & CREDITS :

   NOAA